Time;durP1;ratioP1;P1;durP2;ratioP2;P2;SDS_P1;SDS_P2;PMS_P1;PMS_P2;Temp;Humidity;BMP_temperature;BMP_pressure;BME280_temperature;BME280_humidity;BME280_pressure;Samples;Min_cycle;Max_cycle;Signal;HPM_P1;HPM_P2
2023/10/04 00:01:12;;;;;;;16.47;3.13;;;13.60;99.90;;;;;;5074655;28;20118;-67
2023/10/04 00:03:39;;;;;;;13.93;3.27;;;13.60;99.90;;;;;;5074598;28;20049;-66
2023/10/04 00:06:04;;;;;;;17.73;3.07;;;13.60;99.90;;;;;;5074585;28;20294;-67
2023/10/04 00:08:30;;;;;;;12.53;2.77;;;13.60;99.90;;;;;;5074502;28;20044;-66
2023/10/04 00:10:56;;;;;;;12.27;2.57;;;13.60;99.90;;;;;;5074435;28;20099;-67
2023/10/04 00:13:21;;;;;;;14.87;3.00;;;13.60;99.90;;;;;;5074409;28;20101;-66
2023/10/04 00:15:47;;;;;;;14.10;2.27;;;13.60;99.90;;;;;;5074878;28;20079;-66
2023/10/04 00:18:15;;;;;;;12.57;2.87;;;13.60;99.90;;;;;;5074190;28;20040;-66
2023/10/04 00:20:40;;;;;;;15.83;2.93;;;13.50;99.90;;;;;;5074806;28;20154;-66
2023/10/04 00:23:06;;;;;;;14.27;3.37;;;13.50;99.90;;;;;;5073930;28;20164;-66
2023/10/04 00:25:35;;;;;;;15.63;2.90;;;13.50;99.90;;;;;;5073095;28;20122;-66
2023/10/04 00:28:02;;;;;;;15.00;2.50;;;13.50;99.90;;;;;;5074247;28;20123;-66
2023/10/04 00:30:29;;;;;;;15.00;3.10;;;13.50;99.90;;;;;;5074032;28;20364;-66
2023/10/04 00:32:57;;;;;;;13.83;2.63;;;13.50;99.90;;;;;;5073937;28;20278;-67
2023/10/04 00:35:25;;;;;;;14.40;3.03;;;13.50;99.90;;;;;;5073896;28;20298;-66
2023/10/04 00:38:00;;;;;;;14.53;3.57;;;13.40;99.90;;;;;;5074214;28;20389;-66
2023/10/04 00:40:31;;;;;;;14.05;2.78;;;13.50;99.90;;;;;;5074240;28;20055;-66
2023/10/04 00:43:05;;;;;;;16.53;2.90;;;13.40;99.90;;;;;;5073911;28;20048;-66
2023/10/04 00:45:33;;;;;;;18.27;3.38;;;13.40;99.90;;;;;;5073780;28;20315;-66
2023/10/04 00:48:08;;;;;;;20.50;3.00;;;13.40;99.90;;;;;;5074576;28;20450;-66
2023/10/04 00:50:33;;;;;;;21.13;3.63;;;13.40;99.90;;;;;;5074187;28;20538;-66
2023/10/04 00:53:01;;;;;;;14.40;2.53;;;13.40;99.90;;;;;;5073762;28;20044;-67
2023/10/04 00:55:27;;;;;;;14.90;2.50;;;13.40;99.90;;;;;;5072809;28;20439;-66
2023/10/04 00:57:56;;;;;;;13.40;2.73;;;13.40;99.90;;;;;;5074086;28;20291;-67
2023/10/04 01:00:22;;;;;;;13.37;2.77;;;13.40;99.90;;;;;;5074164;28;20439;-67
2023/10/04 01:02:48;;;;;;;17.17;2.97;;;13.40;99.90;;;;;;5074391;28;20271;-68
2023/10/04 01:05:16;;;;;;;16.20;4.43;;;13.40;99.90;;;;;;5073255;28;20759;-66
2023/10/04 01:07:44;;;;;;;10.97;2.33;;;13.40;99.90;;;;;;5073530;28;20282;-66
2023/10/04 01:10:16;;;;;;;17.23;3.47;;;13.40;99.90;;;;;;5073424;28;20286;-67
2023/10/04 01:12:45;;;;;;;13.40;3.17;;;13.40;99.90;;;;;;5073634;28;20091;-66
2023/10/04 01:18:04;;;;;;;15.97;2.90;;;13.40;99.90;;;;;;5073361;28;20295;-66
2023/10/04 01:20:30;;;;;;;12.23;2.80;;;13.30;99.90;;;;;;5074217;28;20314;-66
2023/10/04 01:23:06;;;;;;;13.00;2.97;;;13.40;99.90;;;;;;5073670;28;20062;-67
2023/10/04 01:25:39;;;;;;;14.60;2.97;;;13.40;99.90;;;;;;5073447;28;20278;-66
2023/10/04 01:28:11;;;;;;;17.27;3.10;;;13.40;99.90;;;;;;5073423;28;20286;-67
2023/10/04 01:30:41;;;;;;;17.00;3.20;;;13.40;99.90;;;;;;5073932;28;20691;-66
2023/10/04 01:33:10;;;;;;;15.43;3.20;;;13.40;99.90;;;;;;5073296;28;20368;-66
2023/10/04 01:35:37;;;;;;;17.93;3.17;;;13.40;99.90;;;;;;5071751;28;20275;-67
2023/10/04 01:38:06;;;;;;;11.40;3.07;;;13.40;99.90;;;;;;5073724;28;20295;-66
2023/10/04 01:40:35;;;;;;;17.40;3.50;;;13.40;99.90;;;;;;5073220;28;20290;-66
2023/10/04 01:43:10;;;;;;;14.93;3.13;;;13.40;99.90;;;;;;5073228;28;20275;-66
2023/10/04 01:45:36;;;;;;;15.90;3.70;;;13.40;99.90;;;;;;5073280;28;20087;-66
2023/10/04 01:48:05;;;;;;;16.80;3.77;;;13.40;99.90;;;;;;5055964;28;20052;-67
2023/10/04 01:50:30;;;;;;;13.63;3.20;;;13.40;99.90;;;;;;5073201;28;20044;-67
2023/10/04 01:52:56;;;;;;;15.57;3.53;;;13.40;99.90;;;;;;5073192;28;20053;-66
2023/10/04 01:55:22;;;;;;;15.27;3.27;;;13.40;99.90;;;;;;5072545;28;20049;-67
2023/10/04 01:57:48;;;;;;;13.33;2.67;;;13.30;99.90;;;;;;5074582;28;20049;-66
2023/10/04 02:00:18;;;;;;;13.63;2.93;;;13.30;99.90;;;;;;5076831;28;20074;-66
2023/10/04 02:02:44;;;;;;;11.30;2.80;;;13.30;99.90;;;;;;5076884;28;20047;-66
2023/10/04 02:05:15;;;;;;;15.17;2.80;;;13.30;99.90;;;;;;5076537;28;20291;-67
2023/10/04 02:07:41;;;;;;;16.70;3.53;;;13.30;99.90;;;;;;5077010;28;20109;-66
2023/10/04 02:10:09;;;;;;;12.87;4.07;;;13.30;99.90;;;;;;5076911;28;20317;-66
2023/10/04 02:12:35;;;;;;;13.60;3.00;;;13.20;99.90;;;;;;5076694;28;20428;-66
2023/10/04 02:15:01;;;;;;;13.07;3.13;;;13.20;99.90;;;;;;5075901;28;20274;-67
2023/10/04 02:17:27;;;;;;;16.17;3.27;;;13.20;99.90;;;;;;5076524;28;20289;-66
2023/10/04 02:19:54;;;;;;;19.47;3.10;;;13.20;99.90;;;;;;5076222;28;20048;-66
2023/10/04 02:22:20;;;;;;;13.43;2.70;;;13.20;99.90;;;;;;5058621;28;20344;-66
2023/10/04 02:24:45;;;;;;;16.23;3.23;;;13.20;99.90;;;;;;5076997;28;20056;-66
2023/10/04 02:27:11;;;;;;;14.47;3.40;;;13.20;99.90;;;;;;5077169;28;20287;-66
2023/10/04 02:29:44;;;;;;;14.53;3.13;;;13.20;99.90;;;;;;5076338;28;20083;-66
2023/10/04 02:32:09;;;;;;;14.23;3.07;;;13.20;99.90;;;;;;5076557;28;20369;-66
2023/10/04 02:34:36;;;;;;;16.83;3.33;;;13.20;99.90;;;;;;5075532;28;20294;-66
2023/10/04 02:37:12;;;;;;;18.87;4.03;;;13.20;99.90;;;;;;5076209;28;20048;-67
2023/10/04 02:39:38;;;;;;;16.77;3.13;;;13.20;99.90;;;;;;5076528;28;20387;-66
2023/10/04 02:42:11;;;;;;;13.40;2.97;;;13.20;99.90;;;;;;5075020;28;20743;-67
2023/10/04 02:44:37;;;;;;;13.67;3.07;;;13.20;99.90;;;;;;5076740;28;20119;-66
2023/10/04 02:47:06;;;;;;;15.87;3.40;;;13.20;99.90;;;;;;5074532;28;20345;-67
2023/10/04 02:49:38;;;;;;;14.67;3.33;;;13.20;99.90;;;;;;5075337;28;20358;-66
2023/10/04 02:52:06;;;;;;;15.50;3.10;;;13.10;99.90;;;;;;5074268;28;20848;-67
2023/10/04 02:54:33;;;;;;;15.27;4.07;;;13.10;99.90;;;;;;5075910;28;20283;-66
2023/10/04 02:57:00;;;;;;;13.63;3.57;;;13.20;99.90;;;;;;5076698;28;20283;-66
2023/10/04 02:59:26;;;;;;;17.20;4.03;;;13.20;99.90;;;;;;5076251;28;20307;-66
2023/10/04 03:01:52;;;;;;;15.87;3.20;;;13.10;99.90;;;;;;5076309;28;20278;-66
2023/10/04 03:04:19;;;;;;;11.87;3.00;;;13.10;99.90;;;;;;5075720;28;20830;-67
2023/10/04 03:06:46;;;;;;;10.93;3.03;;;13.10;99.90;;;;;;5074733;28;20297;-66
2023/10/04 03:09:12;;;;;;;14.47;3.33;;;13.10;99.90;;;;;;5074113;28;20295;-66
2023/10/04 03:11:42;;;;;;;10.67;2.80;;;13.10;99.90;;;;;;5076105;28;20275;-66
2023/10/04 03:14:08;;;;;;;16.03;3.30;;;13.10;99.90;;;;;;5075520;28;20643;-66
2023/10/04 03:16:36;;;;;;;13.63;3.00;;;13.10;99.90;;;;;;5075067;28;20287;-66
2023/10/04 03:19:03;;;;;;;11.70;3.00;;;13.10;99.90;;;;;;5075363;28;20302;-66
2023/10/04 03:21:33;;;;;;;13.87;3.50;;;13.10;99.90;;;;;;5076235;28;20342;-66
2023/10/04 03:23:58;;;;;;;14.60;3.10;;;13.10;99.90;;;;;;5073755;28;20794;-66
2023/10/04 03:26:24;;;;;;;10.67;2.93;;;13.10;99.90;;;;;;5075393;28;20285;-67
2023/10/04 03:28:50;;;;;;;14.60;3.40;;;13.10;99.90;;;;;;5075906;28;20132;-66
2023/10/04 03:31:20;;;;;;;11.13;2.83;;;13.10;99.90;;;;;;5075278;28;20278;-67
2023/10/04 03:33:49;;;;;;;12.07;2.97;;;13.10;99.90;;;;;;5075242;28;20389;-66
2023/10/04 03:36:18;;;;;;;13.80;3.90;;;13.00;99.90;;;;;;5075125;28;20290;-67
2023/10/04 03:38:45;;;;;;;14.07;3.30;;;13.00;99.90;;;;;;5075655;28;20737;-66
2023/10/04 03:41:12;;;;;;;14.90;3.17;;;13.00;99.90;;;;;;5075063;28;20283;-66
2023/10/04 03:43:40;;;;;;;16.43;3.63;;;13.00;99.90;;;;;;5075029;28;20321;-66
2023/10/04 03:46:18;;;;;;;13.10;3.00;;;13.00;99.90;;;;;;5074957;28;20282;-67
2023/10/04 03:48:45;;;;;;;16.00;3.70;;;13.00;99.90;;;;;;5074735;28;20282;-66
2023/10/04 03:51:11;;;;;;;13.13;3.03;;;13.00;99.90;;;;;;5075426;28;20290;-67
2023/10/04 03:53:37;;;;;;;15.07;3.87;;;13.00;99.90;;;;;;5074745;28;20279;-67
2023/10/04 03:56:04;;;;;;;15.40;3.43;;;13.00;99.90;;;;;;5074378;28;20393;-66
2023/10/04 03:58:35;;;;;;;10.83;3.03;;;13.00;99.90;;;;;;5074547;28;20349;-67
2023/10/04 04:01:01;;;;;;;15.17;3.20;;;13.00;99.90;;;;;;5074966;28;20278;-67
2023/10/04 04:03:27;;;;;;;14.90;2.93;;;13.00;99.90;;;;;;5074043;28;20340;-67
2023/10/04 04:05:54;;;;;;;17.90;3.67;;;13.00;99.90;;;;;;5074515;28;20041;-67
2023/10/04 04:08:20;;;;;;;14.97;2.73;;;12.90;99.90;;;;;;5075005;28;20044;-67
2023/10/04 04:10:46;;;;;;;15.63;2.87;;;12.90;99.90;;;;;;5074996;28;20271;-66
2023/10/04 04:13:13;;;;;;;13.97;3.27;;;12.90;99.90;;;;;;5074402;28;20048;-67
2023/10/04 04:15:39;;;;;;;13.70;3.03;;;12.90;99.90;;;;;;5074054;28;20763;-66
2023/10/04 04:18:29;;;;;;;11.90;2.93;;;12.90;99.90;;;;;;5074794;28;20695;-66
2023/10/04 04:20:53;;;;;;;13.03;3.27;;;12.90;99.90;;;;;;5073723;28;20290;-66
2023/10/04 04:23:19;;;;;;;14.87;3.73;;;12.90;99.90;;;;;;5074280;28;20431;-67
2023/10/04 04:25:47;;;;;;;15.00;3.30;;;12.90;99.90;;;;;;5074938;28;20704;-66
2023/10/04 04:28:14;;;;;;;13.60;3.27;;;12.90;99.90;;;;;;5074103;28;20079;-68
2023/10/04 04:30:41;;;;;;;16.10;3.30;;;12.90;99.90;;;;;;5073789;28;20817;-67
2023/10/04 04:33:07;;;;;;;17.83;3.63;;;12.90;99.90;;;;;;5074008;28;20631;-66
2023/10/04 04:38:13;;;;;;;15.30;3.20;;;12.90;99.90;;;;;;5074084;28;20767;-66
2023/10/04 04:40:44;;;;;;;11.33;3.53;;;12.90;99.90;;;;;;5074244;28;20354;-66
2023/10/04 04:45:51;;;;;;;13.60;3.40;;;12.90;99.90;;;;;;5073461;28;20659;-66
2023/10/04 04:48:38;;;;;;;11.90;3.10;;;12.90;99.90;;;;;;5074085;28;20389;-67
2023/10/04 04:51:12;;;;;;;15.80;3.20;;;12.90;99.90;;;;;;5073596;28;20620;-66
2023/10/04 04:53:42;;;;;;;15.67;3.10;;;12.80;99.90;;;;;;5073591;28;20329;-66
2023/10/04 04:56:15;;;;;;;15.07;3.30;;;12.80;99.90;;;;;;5074417;28;20289;-66
2023/10/04 04:58:42;;;;;;;16.83;3.90;;;12.80;99.90;;;;;;5074205;28;20389;-66
2023/10/04 05:01:11;;;;;;;14.40;3.30;;;12.80;99.90;;;;;;5073135;28;20770;-66
2023/10/04 05:03:41;;;;;;;14.57;4.10;;;12.80;99.90;;;;;;5073609;28;20294;-66
2023/10/04 05:06:09;;;;;;;11.63;3.83;;;12.80;99.90;;;;;;5073329;28;20786;-66
2023/10/04 05:08:36;;;;;;;9.10;2.80;;;12.80;99.90;;;;;;5074035;28;20332;-66
2023/10/04 05:11:05;;;;;;;12.40;3.07;;;12.80;99.90;;;;;;5073099;28;20344;-66
2023/10/04 05:13:31;;;;;;;12.70;3.20;;;12.80;99.90;;;;;;5074080;28;20337;-67
2023/10/04 05:15:57;;;;;;;16.10;3.70;;;12.80;99.90;;;;;;5073316;28;20286;-66
2023/10/04 05:18:22;;;;;;;13.53;3.43;;;12.80;99.90;;;;;;5073304;28;20044;-66
2023/10/04 05:20:53;;;;;;;13.63;3.93;;;12.80;99.90;;;;;;5073403;28;20132;-66
2023/10/04 05:23:24;;;;;;;16.97;4.30;;;12.80;99.90;;;;;;5073764;28;20064;-66
2023/10/04 05:25:52;;;;;;;15.50;3.43;;;12.80;99.90;;;;;;5074147;28;20286;-66
2023/10/04 05:28:18;;;;;;;14.73;3.67;;;12.80;99.90;;;;;;5073619;28;20569;-66
2023/10/04 05:30:45;;;;;;;13.03;4.03;;;12.80;99.90;;;;;;5073220;28;20286;-66
2023/10/04 05:33:16;;;;;;;13.73;3.87;;;12.70;99.90;;;;;;5075414;28;20816;-66
2023/10/04 05:35:47;;;;;;;17.67;4.20;;;12.70;99.90;;;;;;5077294;28;20357;-66
2023/10/04 05:38:17;;;;;;;14.73;3.80;;;12.80;99.90;;;;;;5077715;28;20297;-66
2023/10/04 05:40:44;;;;;;;20.03;5.77;;;12.70;99.90;;;;;;5077212;28;20365;-66
2023/10/04 05:43:12;;;;;;;15.23;4.33;;;12.70;99.90;;;;;;5077175;28;20287;-66
2023/10/04 05:45:39;;;;;;;15.10;3.90;;;12.70;99.90;;;;;;5076836;28;20287;-66
2023/10/04 05:48:06;;;;;;;20.20;5.20;;;12.70;99.90;;;;;;5077284;28;20274;-66
2023/10/04 05:50:32;;;;;;;13.43;4.47;;;12.80;99.90;;;;;;5076667;28;20274;-66
2023/10/04 05:53:03;;;;;;;18.17;4.93;;;12.80;99.90;;;;;;5076654;28;20634;-66
2023/10/04 05:55:29;;;;;;;20.27;5.30;;;12.80;99.90;;;;;;5076139;28;20286;-67
2023/10/04 05:57:55;;;;;;;15.17;4.47;;;12.80;99.90;;;;;;5076500;28;20751;-66
2023/10/04 06:00:23;;;;;;;17.57;4.30;;;12.80;99.90;;;;;;5075725;28;20052;-66
2023/10/04 06:02:58;;;;;;;15.93;5.67;;;12.90;99.90;;;;;;5077164;28;20685;-67
2023/10/04 06:05:27;;;;;;;15.37;4.33;;;12.90;99.90;;;;;;5077406;28;20279;-67
2023/10/04 06:07:55;;;;;;;15.70;5.17;;;12.90;99.90;;;;;;5075239;28;20279;-67
2023/10/04 06:10:23;;;;;;;19.83;5.17;;;12.80;99.90;;;;;;5076773;28;20287;-67
2023/10/04 06:12:51;;;;;;;13.97;4.67;;;12.90;99.90;;;;;;5077258;28;20356;-67
2023/10/04 06:15:17;;;;;;;17.70;4.90;;;12.90;99.90;;;;;;5076028;28;20294;-67
2023/10/04 06:17:47;;;;;;;13.77;4.63;;;13.00;99.90;;;;;;5059268;28;20283;-67
2023/10/04 06:20:33;;;;;;;15.93;4.57;;;13.00;99.90;;;;;;5058824;28;20282;-67
2023/10/04 06:23:07;;;;;;;15.90;4.20;;;13.00;99.90;;;;;;5076957;28;20346;-67
2023/10/04 06:25:35;;;;;;;20.43;5.23;;;13.00;99.90;;;;;;5075777;28;20279;-67
2023/10/04 06:28:04;;;;;;;16.70;4.43;;;13.10;99.90;;;;;;5077202;28;20615;-67
2023/10/04 06:30:34;;;;;;;16.37;5.07;;;13.10;99.90;;;;;;5076532;28;20279;-67
2023/10/04 06:33:05;;;;;;;16.60;4.57;;;13.20;99.90;;;;;;5074819;28;20829;-67
2023/10/04 06:35:32;;;;;;;21.73;5.20;;;13.20;99.90;;;;;;5076307;28;20279;-68
2023/10/04 06:38:08;;;;;;;14.70;5.13;;;13.20;99.90;;;;;;5076115;28;20785;-67
2023/10/04 06:40:36;;;;;;;14.23;4.60;;;13.30;99.90;;;;;;5074957;28;20282;-67
2023/10/04 06:43:09;;;;;;;16.57;4.40;;;13.30;99.90;;;;;;5075820;28;20427;-67
2023/10/04 06:45:37;;;;;;;16.43;4.10;;;13.40;99.90;;;;;;5076379;28;20275;-68
2023/10/04 06:48:04;;;;;;;16.07;5.07;;;13.50;99.90;;;;;;5075976;28;20278;-67
2023/10/04 06:50:35;;;;;;;16.93;5.03;;;13.50;99.90;;;;;;5075939;28;20278;-68
2023/10/04 06:53:03;;;;;;;14.93;4.77;;;13.60;99.90;;;;;;5076279;28;20279;-68
2023/10/04 06:55:31;;;;;;;14.83;4.30;;;13.60;99.90;;;;;;5075825;28;20441;-68
2023/10/04 06:57:57;;;;;;;18.13;4.97;;;13.70;99.90;;;;;;5074778;28;20401;-68
2023/10/04 07:00:30;;;;;;;17.03;5.27;;;13.80;99.90;;;;;;5076493;28;20375;-68
2023/10/04 07:03:01;;;;;;;17.10;5.57;;;13.80;99.90;;;;;;5075160;28;20052;-66
2023/10/04 07:05:35;;;;;;;12.77;4.83;;;13.90;99.90;;;;;;5075689;28;20271;-67
2023/10/04 07:08:03;;;;;;;16.67;4.83;;;14.00;99.90;;;;;;5076174;28;20339;-67
2023/10/04 07:10:30;;;;;;;17.80;5.57;;;14.10;99.90;;;;;;5075618;28;20328;-67
2023/10/04 07:12:57;;;;;;;15.50;4.93;;;14.10;99.90;;;;;;5075511;28;20481;-67
2023/10/04 07:15:24;;;;;;;14.93;5.10;;;14.30;99.90;;;;;;5075504;28;20743;-67
2023/10/04 07:17:51;;;;;;;15.10;5.13;;;14.40;99.90;;;;;;5075592;28;20090;-67
2023/10/04 07:20:18;;;;;;;15.77;5.43;;;14.50;99.90;;;;;;5075375;28;20507;-67
2023/10/04 07:22:59;;;;;;;14.90;4.87;;;14.70;99.90;;;;;;5075089;28;20063;-67
2023/10/04 07:25:32;;;;;;;16.13;4.80;;;14.80;99.90;;;;;;5075324;28;20044;-67
2023/10/04 07:28:03;;;;;;;19.27;5.90;;;14.90;99.90;;;;;;5075790;28;20040;-67
2023/10/04 07:30:30;;;;;;;18.97;5.00;;;15.00;99.90;;;;;;5075151;28;20503;-67
2023/10/04 07:32:58;;;;;;;17.57;5.30;;;15.10;99.90;;;;;;5074827;28;20485;-67
2023/10/04 07:35:25;;;;;;;14.53;5.40;;;15.20;99.90;;;;;;5075227;28;20049;-67
2023/10/04 07:37:56;;;;;;;18.07;6.23;;;15.20;99.90;;;;;;5074982;28;20480;-67
2023/10/04 07:40:24;;;;;;;14.93;5.23;;;15.30;99.90;;;;;;5075003;28;20045;-67
2023/10/04 07:42:53;;;;;;;21.37;6.33;;;15.30;99.90;;;;;;5074988;28;20048;-67
2023/10/04 07:45:25;;;;;;;18.47;5.00;;;15.30;99.90;;;;;;5074874;28;20045;-67
2023/10/04 07:47:51;;;;;;;14.80;4.90;;;15.30;99.90;;;;;;5074821;28;20059;-67
2023/10/04 07:50:28;;;;;;;16.03;4.80;;;15.20;99.90;;;;;;5073638;28;20084;-67
2023/10/04 07:52:59;;;;;;;11.97;4.93;;;15.20;99.90;;;;;;5074798;28;20119;-67
2023/10/04 07:55:25;;;;;;;14.63;5.27;;;15.10;99.90;;;;;;5072736;28;20048;-67
2023/10/04 07:58:02;;;;;;;16.33;5.17;;;15.10;99.90;;;;;;5075066;28;20052;-67
2023/10/04 08:00:29;;;;;;;14.80;5.40;;;15.20;99.90;;;;;;5075404;28;20163;-67
2023/10/04 08:02:57;;;;;;;13.43;4.97;;;15.20;99.90;;;;;;5074228;28;20447;-67
2023/10/04 08:05:29;;;;;;;14.27;5.77;;;15.20;99.90;;;;;;5074216;28;20584;-67
2023/10/04 08:08:03;;;;;;;12.73;4.53;;;15.10;99.90;;;;;;5075245;28;20346;-67
2023/10/04 08:10:34;;;;;;;14.77;4.67;;;15.00;99.90;;;;;;5075000;28;20110;-67
2023/10/04 08:13:01;;;;;;;14.20;5.60;;;15.00;99.90;;;;;;5074350;28;20048;-67
2023/10/04 08:15:29;;;;;;;14.80;5.00;;;15.10;99.90;;;;;;5074228;28;20079;-67
2023/10/04 08:17:56;;;;;;;15.67;5.37;;;15.20;99.90;;;;;;5072799;28;20052;-67
2023/10/04 08:20:26;;;;;;;12.20;4.80;;;15.40;99.90;;;;;;5074244;28;20048;-67
2023/10/04 08:22:51;;;;;;;15.80;5.43;;;15.40;99.90;;;;;;5074431;28;20102;-67
2023/10/04 08:25:21;;;;;;;17.57;5.00;;;15.60;99.90;;;;;;5074135;28;20389;-67
2023/10/04 08:27:48;;;;;;;19.60;5.50;;;15.60;99.90;;;;;;5074066;28;20504;-67
2023/10/04 08:30:15;;;;;;;16.50;5.30;;;15.80;99.90;;;;;;5074005;28;20048;-67
2023/10/04 08:32:42;;;;;;;15.10;4.50;;;15.90;99.90;;;;;;5073959;28;20178;-69
2023/10/04 08:35:21;;;;;;;10.97;4.33;;;16.00;99.90;;;;;;5073957;28;20127;-67
2023/10/04 08:37:54;;;;;;;18.37;4.97;;;16.10;99.90;;;;;;5073924;28;20055;-67
2023/10/04 08:40:27;;;;;;;19.77;5.07;;;16.20;99.90;;;;;;5074498;28;20044;-68
2023/10/04 08:42:53;;;;;;;14.97;5.10;;;16.20;99.90;;;;;;5074053;28;20473;-68
2023/10/04 08:45:24;;;;;;;16.83;5.30;;;16.20;99.90;;;;;;5073332;28;20039;-68
2023/10/04 08:47:59;;;;;;;15.27;5.10;;;16.20;99.90;;;;;;5074004;28;20052;-68
2023/10/04 08:50:41;;;;;;;19.20;4.67;;;16.20;99.90;;;;;;5074463;28;20049;-68
2023/10/04 08:53:45;;;;;;;18.67;5.17;;;16.20;99.90;;;;;;5074422;28;20044;-68
2023/10/04 08:56:13;;;;;;;12.70;4.63;;;16.20;99.90;;;;;;5073594;28;20056;-67
2023/10/04 08:58:43;;;;;;;14.87;5.33;;;16.20;99.90;;;;;;5073434;28;20052;-68
2023/10/04 09:01:11;;;;;;;17.47;5.30;;;16.20;99.90;;;;;;5073558;28;20059;-64
2023/10/04 09:03:40;;;;;;;16.40;4.83;;;16.30;99.90;;;;;;5073486;28;20059;-65
2023/10/04 09:06:10;;;;;;;14.73;5.10;;;16.30;99.90;;;;;;5073371;28;20048;-65
2023/10/04 09:08:44;;;;;;;17.07;5.67;;;16.30;99.90;;;;;;5072847;28;20044;-66
2023/10/04 09:11:15;;;;;;;16.23;4.90;;;16.30;99.90;;;;;;5073195;28;20045;-66
2023/10/04 09:13:44;;;;;;;15.23;5.20;;;16.30;99.90;;;;;;5072945;28;20164;-66
2023/10/04 09:16:36;;;;;;;16.07;5.23;;;16.40;99.90;;;;;;5074083;28;20157;-67
2023/10/04 09:19:15;;;;;;;16.37;4.90;;;16.40;99.90;;;;;;5071969;28;20561;-65
2023/10/04 09:21:41;;;;;;;16.87;5.53;;;16.50;99.90;;;;;;5073456;28;20174;-66
2023/10/04 09:24:09;;;;;;;14.40;4.73;;;16.50;99.90;;;;;;5073514;28;20084;-66
2023/10/04 09:26:36;;;;;;;17.13;5.23;;;16.50;99.90;;;;;;5072978;28;20131;-67
2023/10/04 09:29:04;;;;;;;13.67;5.27;;;16.50;99.90;;;;;;5071767;28;20033;-65
2023/10/04 09:31:30;;;;;;;14.80;6.60;;;16.50;99.90;;;;;;5073062;28;20087;-66
2023/10/04 09:34:13;;;;;;;16.10;5.17;;;16.50;99.90;;;;;;5073285;28;20090;-65
2023/10/04 09:36:40;;;;;;;11.97;5.07;;;16.50;99.90;;;;;;5073122;28;20491;-65
2023/10/04 09:39:08;;;;;;;17.20;5.37;;;16.50;99.90;;;;;;5055253;28;20044;-65
2023/10/04 09:41:41;;;;;;;15.23;5.00;;;16.50;99.90;;;;;;5073699;28;20090;-66
2023/10/04 09:44:29;;;;;;;14.33;5.93;;;16.50;99.90;;;;;;5073021;28;20040;-66
2023/10/04 09:46:59;;;;;;;15.40;4.83;;;16.60;99.90;;;;;;5073257;28;20044;-66
2023/10/04 09:49:32;;;;;;;15.07;5.87;;;16.60;99.90;;;;;;5073002;28;20045;-66
2023/10/04 09:52:00;;;;;;;13.60;5.20;;;16.70;99.90;;;;;;5071715;28;20130;-66
2023/10/04 09:54:30;;;;;;;16.13;5.80;;;16.80;99.90;;;;;;5072950;28;20055;-66
2023/10/04 09:56:57;;;;;;;14.50;4.90;;;16.80;99.90;;;;;;5072713;28;20056;-66
2023/10/04 09:59:23;;;;;;;14.20;5.07;;;16.90;99.90;;;;;;5072723;28;20386;-66
2023/10/04 10:01:57;;;;;;;14.00;4.83;;;16.90;99.90;;;;;;5072634;28;20158;-66
2023/10/04 10:04:27;;;;;;;13.87;4.97;;;17.00;99.90;;;;;;5071768;28;20048;-66
2023/10/04 10:06:56;;;;;;;14.87;5.37;;;17.00;99.90;;;;;;5072697;28;20101;-66
2023/10/04 10:09:25;;;;;;;14.17;5.37;;;17.10;99.90;;;;;;5073076;28;20161;-66
2023/10/04 10:11:52;;;;;;;15.07;5.20;;;17.00;99.90;;;;;;5072619;28;20121;-66
2023/10/04 10:14:21;;;;;;;14.20;5.27;;;17.00;99.90;;;;;;5072979;28;20040;-66
2023/10/04 10:16:54;;;;;;;15.40;5.53;;;17.00;99.90;;;;;;5072648;28;20044;-65
2023/10/04 10:19:23;;;;;;;15.33;5.27;;;17.10;99.90;;;;;;5075495;28;20052;-66
2023/10/04 10:22:15;;;;;;;16.73;5.47;;;17.10;99.90;;;;;;5076251;28;20075;-65
2023/10/04 10:25:04;;;;;;;13.47;5.43;;;17.10;99.90;;;;;;5076880;28;20084;-65
2023/10/04 10:27:29;;;;;;;16.67;5.53;;;17.10;99.90;;;;;;5072793;28;20064;-65
2023/10/04 10:30:02;;;;;;;18.37;6.37;;;17.20;99.90;;;;;;5076231;28;20041;-66
2023/10/04 10:32:28;;;;;;;14.00;5.53;;;17.20;99.90;;;;;;5075267;28;20055;-66
2023/10/04 10:35:01;;;;;;;18.53;5.83;;;17.30;99.90;;;;;;5076017;28;20162;-66
2023/10/04 10:37:27;;;;;;;14.63;5.97;;;17.30;99.90;;;;;;5076161;28;20044;-66
2023/10/04 10:39:55;;;;;;;13.90;5.93;;;17.30;99.90;;;;;;5076102;28;20101;-65
2023/10/04 10:42:22;;;;;;;17.07;5.93;;;17.30;99.90;;;;;;5076091;28;20044;-65
2023/10/04 10:44:50;;;;;;;16.93;6.10;;;17.30;99.90;;;;;;5076093;28;20489;-65
2023/10/04 10:47:25;;;;;;;17.23;6.47;;;17.30;99.90;;;;;;5075966;28;20059;-66
2023/10/04 10:49:52;;;;;;;17.30;6.07;;;17.20;99.90;;;;;;5075945;28;20045;-65
2023/10/04 10:52:27;;;;;;;14.03;5.93;;;17.30;99.90;;;;;;5075918;28;20048;-66
2023/10/04 10:55:05;;;;;;;17.92;5.50;;;17.30;99.90;;;;;;5076526;28;20058;-66
2023/10/04 10:57:32;;;;;;;12.67;5.60;;;17.30;99.90;;;;;;5076315;28;20049;-66
2023/10/04 11:00:11;;;;;;;15.33;6.20;;;17.30;99.90;;;;;;5075937;28;20106;-66
2023/10/04 11:02:37;;;;;;;19.53;5.93;;;17.30;99.90;;;;;;5075506;28;20146;-72
2023/10/04 11:05:08;;;;;;;14.00;5.37;;;17.30;99.90;;;;;;5092254;28;20040;-67
2023/10/04 11:07:35;;;;;;;14.20;5.57;;;17.30;99.90;;;;;;5074227;28;20093;-65
2023/10/04 11:10:01;;;;;;;14.67;6.23;;;17.30;99.90;;;;;;5076216;28;20048;-68
2023/10/04 11:12:27;;;;;;;17.40;6.20;;;17.40;99.90;;;;;;5075452;28;20059;-66
2023/10/04 11:14:53;;;;;;;16.20;6.27;;;17.30;99.90;;;;;;5075382;28;20049;-65
2023/10/04 11:17:22;;;;;;;17.20;6.40;;;17.40;99.90;;;;;;5074193;28;20085;-65
2023/10/04 11:19:51;;;;;;;16.37;5.57;;;17.40;99.90;;;;;;5075519;28;20143;-66
2023/10/04 11:22:17;;;;;;;14.60;5.53;;;17.40;99.90;;;;;;5075752;28;20063;-65
2023/10/04 11:24:44;;;;;;;15.47;6.27;;;17.40;99.90;;;;;;5075756;28;20054;-66
2023/10/04 11:27:11;;;;;;;15.93;5.93;;;17.40;99.90;;;;;;5074940;28;20507;-66
2023/10/04 11:29:38;;;;;;;14.87;5.70;;;17.50;99.90;;;;;;5074328;28;20048;-65
2023/10/04 11:32:05;;;;;;;11.20;4.90;;;17.50;99.90;;;;;;5074747;28;20067;-66
2023/10/04 11:34:37;;;;;;;12.30;5.00;;;17.50;99.90;;;;;;5075123;28;20143;-65
2023/10/04 11:37:03;;;;;;;14.13;5.23;;;17.50;99.90;;;;;;5075082;28;20040;-66
2023/10/04 11:39:35;;;;;;;13.23;5.00;;;17.60;99.90;;;;;;5074889;28;20051;-66
2023/10/04 11:42:03;;;;;;;14.17;4.80;;;17.60;99.90;;;;;;5075030;28;20425;-66
2023/10/04 11:44:33;;;;;;;12.43;4.70;;;17.60;99.90;;;;;;5074892;28;20049;-66
2023/10/04 11:47:03;;;;;;;10.73;4.17;;;17.60;99.90;;;;;;5074834;28;20041;-65
2023/10/04 11:49:33;;;;;;;13.53;5.00;;;17.60;99.90;;;;;;5074849;28;20132;-65
2023/10/04 11:52:04;;;;;;;12.63;3.90;;;17.60;99.90;;;;;;5074847;28;20055;-65
2023/10/04 11:54:40;;;;;;;13.37;4.23;;;17.60;99.90;;;;;;5073293;28;20040;-65
2023/10/04 11:57:06;;;;;;;11.17;4.10;;;17.60;99.90;;;;;;5074587;28;20048;-66
2023/10/04 11:59:33;;;;;;;12.37;3.73;;;17.60;99.90;;;;;;5074421;28;20041;-65
2023/10/04 12:02:00;;;;;;;10.13;3.73;;;17.60;99.90;;;;;;5074327;28;20049;-65
2023/10/04 12:04:25;;;;;;;10.37;4.27;;;17.60;99.90;;;;;;5074325;28;20369;-66
2023/10/04 12:07:20;;;;;;;12.83;4.13;;;17.60;99.90;;;;;;5074669;28;20044;-66
2023/10/04 12:09:46;;;;;;;11.85;4.18;;;17.60;99.90;;;;;;5069726;28;20060;-66
2023/10/04 12:12:16;;;;;;;11.90;3.83;;;17.60;99.90;;;;;;5074107;28;20127;-66
2023/10/04 12:14:43;;;;;;;10.27;4.13;;;17.60;99.90;;;;;;5074793;28;20045;-65
2023/10/04 12:17:09;;;;;;;13.03;4.50;;;17.60;99.90;;;;;;5074652;28;20048;-65
2023/10/04 12:19:35;;;;;;;11.87;3.97;;;17.60;99.90;;;;;;5073797;28;20485;-65
2023/10/04 12:22:11;;;;;;;12.33;3.80;;;17.70;99.90;;;;;;5073685;28;20607;-66
2023/10/04 12:24:38;;;;;;;16.63;4.93;;;17.70;99.90;;;;;;5074883;28;20530;-66
2023/10/04 12:27:08;;;;;;;11.17;3.57;;;17.70;99.90;;;;;;5074041;28;20492;-66
2023/10/04 12:29:37;;;;;;;11.90;3.57;;;17.70;99.90;;;;;;5073963;28;20131;-66
2023/10/04 12:32:04;;;;;;;12.50;3.40;;;17.80;99.90;;;;;;5073880;28;20044;-66
2023/10/04 12:34:30;;;;;;;11.10;3.83;;;17.80;99.90;;;;;;5073813;28;20044;-65
2023/10/04 12:36:56;;;;;;;15.27;3.80;;;17.80;99.90;;;;;;5073804;28;20055;-66
2023/10/04 12:39:23;;;;;;;10.23;3.40;;;17.80;99.90;;;;;;5073699;28;20079;-66
2023/10/04 12:41:49;;;;;;;9.97;3.03;;;17.70;99.90;;;;;;5073512;28;20491;-66
2023/10/04 12:44:17;;;;;;;15.07;3.33;;;17.70;99.90;;;;;;5072397;28;20091;-65
2023/10/04 12:46:44;;;;;;;10.03;3.30;;;17.70;99.90;;;;;;5073743;28;20123;-66
2023/10/04 12:49:10;;;;;;;12.53;3.40;;;17.80;99.90;;;;;;5072444;28;20048;-67
2023/10/04 12:51:36;;;;;;;11.97;3.70;;;17.80;99.90;;;;;;5073589;28;20445;-66
2023/10/04 12:54:03;;;;;;;12.30;4.20;;;17.80;99.90;;;;;;5074150;28;20052;-67